This is the latest recevied weather packets stored in our database for station/object VY2CRA-4. If no packets are shown the sender has not sent any weather packets the latest 10 day(s).
| Time | Temp. | Humidity | Pressure | Rain* | Wind** | Luminosity | Snow |
|---|---|---|---|---|---|---|---|
| 1787724004 | 22.22° C | 47% | 1008.3 hPa | 0 mm | - | - | - |
| 1787722803 | 22.22° C | 46% | 1008.4 hPa | 0 mm | - | - | - |
| 1787721602 | 22.22° C | 46% | 1008.4 hPa | 0 mm | - | - | - |
| 1787720401 | 22.22° C | 46% | 1008.4 hPa | 0 mm | - | - | - |
| 1787719200 | 22.22° C | 45% | 1008.3 hPa | 0 mm | - | - | - |
| 1787717999 | 22.78° C | 45% | 1008.3 hPa | 0 mm | - | - | - |
| 1787716798 | 22.78° C | 44% | 1008.5 hPa | 0 mm | - | - | - |
| 1787715597 | 23.33° C | 43% | 1008.4 hPa | 0 mm | - | - | - |
| 1787714396 | 23.33° C | 42% | 1008.5 hPa | 0 mm | - | - | - |
| 1787713195 | 23.89° C | 42% | 1008.6 hPa | 0 mm | - | - | - |
| 1787710794 | 24.44° C | 40% | 1008.7 hPa | 0 mm | - | - | - |
| 1787709592 | 25° C | 40% | 1008.6 hPa | 0 mm | - | - | - |
| 1787708392 | 25° C | 39% | 1008.7 hPa | 0 mm | - | - | - |
| 1787707191 | 25.56° C | 38% | 1008.5 hPa | 0 mm | - | - | - |
| 1787705990 | 26.11° C | 36% | 1008.6 hPa | 0 mm | - | - | - |
| 1787704789 | 26.11° C | 35% | 1008.7 hPa | 0 mm | - | - | - |
| 1787703588 | 26.67° C | 33% | 1008.4 hPa | 0 mm | - | - | - |
| 1787702388 | 27.78° C | 31% | 1008.3 hPa | 0 mm | - | - | - |
| 1787701186 | 29.44° C | 28% | 1008.1 hPa | 0 mm | - | - | - |
| 1787699985 | 31.67° C | 21% | 1007.8 hPa | 0 mm | - | - | - |
| 1787698784 | 30° C | 25% | 1007.8 hPa | 0 mm | - | - | - |
| 1787696382 | 28.33° C | 33% | 1008.1 hPa | 0 mm | - | - | - |
| 1787695181 | 27.78° C | 35% | 1008.5 hPa | 0 mm | - | - | - |
| 1787693980 | 28.33° C | 33% | 1008.2 hPa | 0 mm | - | - | - |
| 1787692779 | 30° C | 29% | 1008 hPa | 0 mm | - | - | - |
* Rain since midnight (hover to see other rain measurements)
** Current wind speed in m/s (hover to see current wind gust speed)